Time;durP1;ratioP1;P1;durP2;ratioP2;P2;SDS_P1;SDS_P2;PMS_P1;PMS_P2;Temp;Humidity;BMP_temperature;BMP_pressure;BME280_temperature;BME280_humidity;BME280_pressure;Samples;Min_cycle;Max_cycle;Signal;HPM_P1;HPM_P2
2023/10/09 00:01:50;;;;;;;3.72;2.35;;;12.40;99.90;;;;;;5032122;28;20017;-58
2023/10/09 00:04:17;;;;;;;7.95;2.40;;;12.40;99.90;;;;;;5043274;28;20064;-58
2023/10/09 00:06:42;;;;;;;3.13;1.85;;;12.40;99.90;;;;;;5039934;28;20410;-58
2023/10/09 00:11:56;;;;;;;3.95;2.45;;;12.40;99.90;;;;;;5039326;28;20679;-58
2023/10/09 00:14:30;;;;;;;7.50;2.45;;;12.40;99.90;;;;;;5034203;28;20037;-58
2023/10/09 00:17:03;;;;;;;6.25;2.30;;;12.40;99.90;;;;;;5037924;28;20021;-58
2023/10/09 00:19:32;;;;;;;6.80;1.98;;;12.40;99.90;;;;;;5035611;28;20031;-58
2023/10/09 00:22:04;;;;;;;5.28;2.20;;;12.40;99.90;;;;;;5043277;28;20025;-58
2023/10/09 00:24:32;;;;;;;4.47;2.53;;;12.40;99.90;;;;;;5038522;28;20530;-58
2023/10/09 00:27:16;;;;;;;6.38;2.85;;;12.40;99.90;;;;;;5044012;28;20393;-58
2023/10/09 00:29:45;;;;;;;5.72;2.35;;;12.40;99.90;;;;;;5044456;28;20495;-58
2023/10/09 00:34:53;;;;;;;7.72;2.78;;;12.30;99.90;;;;;;5040263;28;20029;-58
2023/10/09 00:37:22;;;;;;;7.57;3.25;;;12.30;99.90;;;;;;5041958;28;20025;-58
2023/10/09 00:39:55;;;;;;;5.07;2.83;;;12.30;99.90;;;;;;5044519;28;20560;-58
2023/10/09 00:42:36;;;;;;;6.22;2.45;;;12.30;99.90;;;;;;5045054;28;20446;-58
2023/10/09 00:45:05;;;;;;;6.85;3.10;;;12.30;99.90;;;;;;5043885;28;20469;-58
2023/10/09 00:47:34;;;;;;;4.65;2.60;;;12.20;99.90;;;;;;5035802;28;20521;-58
2023/10/09 00:50:11;;;;;;;5.90;2.65;;;12.20;99.90;;;;;;5041934;28;20025;-58
2023/10/09 00:52:44;;;;;;;7.50;3.38;;;12.20;99.90;;;;;;5034082;28;20491;-58
2023/10/09 00:55:20;;;;;;;6.13;2.67;;;12.20;99.90;;;;;;5033464;28;20395;-58
2023/10/09 00:57:56;;;;;;;7.47;2.90;;;12.20;99.90;;;;;;5043644;28;20104;-58
2023/10/09 01:03:19;;;;;;;5.82;2.75;;;12.20;99.90;;;;;;5035739;28;20113;-58
2023/10/09 01:08:31;;;;;;;6.47;2.97;;;12.20;99.90;;;;;;5041483;28;20090;-58
2023/10/09 01:11:09;;;;;;;5.70;2.55;;;12.10;99.90;;;;;;5042441;28;20029;-58
2023/10/09 01:13:41;;;;;;;5.05;2.40;;;12.10;99.90;;;;;;5037957;28;20168;-58
2023/10/09 01:16:16;;;;;;;5.75;2.80;;;12.10;99.90;;;;;;5038882;28;20040;-58
2023/10/09 01:18:47;;;;;;;5.90;2.53;;;12.10;99.90;;;;;;5036651;28;20017;-58
2023/10/09 01:21:14;;;;;;;4.90;2.42;;;12.10;99.90;;;;;;5044528;28;20057;-58
2023/10/09 01:24:03;;;;;;;9.25;2.85;;;12.10;99.90;;;;;;5037179;28;20064;-58
2023/10/09 01:26:34;;;;;;;4.57;2.47;;;12.10;99.90;;;;;;5038800;28;20026;-58
2023/10/09 01:29:01;;;;;;;6.80;2.95;;;12.10;99.90;;;;;;5040284;28;20489;-58
2023/10/09 01:31:27;;;;;;;4.05;2.30;;;12.10;99.90;;;;;;5043446;28;20035;-58
2023/10/09 01:33:59;;;;;;;7.50;2.50;;;12.10;99.90;;;;;;5047783;28;20025;-58
2023/10/09 01:36:34;;;;;;;5.18;2.42;;;12.10;99.90;;;;;;5047847;28;20450;-58
2023/10/09 01:39:01;;;;;;;4.85;2.17;;;12.10;99.90;;;;;;5047266;28;20036;-58
2023/10/09 01:41:27;;;;;;;5.43;2.78;;;12.10;99.90;;;;;;5045578;28;20123;-58
2023/10/09 01:43:56;;;;;;;4.50;2.38;;;12.10;99.90;;;;;;5041715;28;20049;-57
2023/10/09 01:46:22;;;;;;;5.18;2.28;;;12.10;99.90;;;;;;5044384;28;20033;-57
2023/10/09 01:48:48;;;;;;;5.47;2.40;;;12.20;99.90;;;;;;5046574;28;20030;-58
2023/10/09 01:51:17;;;;;;;6.00;2.47;;;12.20;99.90;;;;;;5037753;28;20036;-58
2023/10/09 01:53:43;;;;;;;4.53;2.53;;;12.20;99.90;;;;;;5038668;28;20026;-58
2023/10/09 01:56:14;;;;;;;5.32;2.60;;;12.20;99.90;;;;;;5038598;28;20023;-58
2023/10/09 01:58:40;;;;;;;7.13;2.47;;;12.20;99.90;;;;;;5044543;28;20052;-58
2023/10/09 02:01:06;;;;;;;8.35;2.53;;;12.20;99.90;;;;;;5043453;28;20024;-58
2023/10/09 02:03:36;;;;;;;5.93;2.60;;;12.20;99.90;;;;;;5041893;28;20060;-58
2023/10/09 02:06:04;;;;;;;5.03;2.58;;;12.20;99.90;;;;;;5043046;28;20035;-58
2023/10/09 02:08:30;;;;;;;6.60;2.70;;;12.10;99.90;;;;;;5046676;28;20036;-59
2023/10/09 02:10:56;;;;;;;4.82;2.28;;;12.10;99.90;;;;;;5036158;28;20140;-57
2023/10/09 02:13:29;;;;;;;4.45;2.47;;;12.10;99.90;;;;;;5039620;28;20040;-58
2023/10/09 02:16:12;;;;;;;3.78;3.03;;;12.10;99.90;;;;;;5042285;28;20029;-58
2023/10/09 02:18:56;;;;;;;5.53;2.45;;;12.10;99.90;;;;;;5043187;28;20093;-58
2023/10/09 02:21:39;;;;;;;9.43;3.00;;;12.00;99.90;;;;;;5041643;28;20029;-58
2023/10/09 02:24:09;;;;;;;4.97;2.28;;;12.00;99.90;;;;;;5042910;28;20070;-58
2023/10/09 02:29:24;;;;;;;6.80;3.05;;;12.00;99.90;;;;;;5037938;28;20029;-58
2023/10/09 02:31:51;;;;;;;6.10;2.88;;;12.00;99.90;;;;;;5042723;28;20032;-58
2023/10/09 02:34:23;;;;;;;4.50;2.45;;;12.00;99.90;;;;;;5044491;28;20047;-57
2023/10/09 02:36:57;;;;;;;3.75;2.03;;;11.90;99.90;;;;;;5046575;28;20061;-57
2023/10/09 02:39:28;;;;;;;7.18;3.03;;;11.90;99.90;;;;;;5042792;28;20033;-57
2023/10/09 02:42:08;;;;;;;5.22;2.65;;;11.90;99.90;;;;;;5049319;28;20025;-57
2023/10/09 02:44:39;;;;;;;7.15;2.50;;;11.80;99.90;;;;;;5045193;28;20025;-57
2023/10/09 02:47:11;;;;;;;7.13;2.40;;;11.80;99.90;;;;;;5039983;28;20020;-57
2023/10/09 02:49:39;;;;;;;3.22;2.17;;;11.80;99.90;;;;;;5044829;28;20021;-58
2023/10/09 02:52:07;;;;;;;6.35;2.58;;;11.70;99.90;;;;;;5041050;28;20036;-58
2023/10/09 02:54:36;;;;;;;8.35;2.67;;;11.80;99.90;;;;;;5044090;28;20025;-58
2023/10/09 02:57:07;;;;;;;5.57;2.15;;;11.70;99.90;;;;;;5045533;28;20102;-58
2023/10/09 02:59:34;;;;;;;7.00;2.78;;;11.70;99.90;;;;;;5044606;28;20501;-58
2023/10/09 03:02:00;;;;;;;5.63;2.50;;;11.70;99.90;;;;;;5043240;28;20013;-58
2023/10/09 03:04:32;;;;;;;5.22;2.25;;;11.70;99.90;;;;;;5045054;28;20390;-57
2023/10/09 03:06:58;;;;;;;4.88;2.60;;;11.70;99.90;;;;;;5045083;28;20022;-58
2023/10/09 03:09:27;;;;;;;10.75;3.50;;;11.60;99.90;;;;;;5047717;28;20548;-57
2023/10/09 03:11:55;;;;;;;7.43;2.58;;;11.60;99.90;;;;;;5044316;28;20021;-57
2023/10/09 03:14:21;;;;;;;5.13;2.58;;;11.50;99.90;;;;;;5049634;28;20036;-58
2023/10/09 03:16:50;;;;;;;5.50;2.80;;;11.60;99.90;;;;;;5042703;28;20021;-58
2023/10/09 03:19:16;;;;;;;5.25;2.75;;;11.50;99.90;;;;;;5048011;28;20025;-57
2023/10/09 03:21:42;;;;;;;4.72;2.58;;;11.50;99.90;;;;;;5043950;28;20029;-57
2023/10/09 03:24:08;;;;;;;5.38;2.78;;;11.50;99.90;;;;;;5045665;28;20025;-57
2023/10/09 03:26:34;;;;;;;6.10;2.75;;;11.50;99.90;;;;;;5048260;28;20108;-58
2023/10/09 03:29:01;;;;;;;6.60;2.55;;;11.50;99.90;;;;;;5042745;28;20036;-57
2023/10/09 03:31:30;;;;;;;5.60;2.67;;;11.40;99.90;;;;;;5047215;28;20029;-57
2023/10/09 03:33:56;;;;;;;4.03;2.47;;;11.40;99.90;;;;;;5040932;28;20375;-57
2023/10/09 03:36:21;;;;;;;11.35;6.65;;;11.50;99.90;;;;;;5044661;28;20029;-57
2023/10/09 03:38:48;;;;;;;8.05;4.00;;;11.40;99.90;;;;;;5040707;28;20046;-58
2023/10/09 03:41:14;;;;;;;7.32;2.65;;;11.30;99.90;;;;;;5046122;28;20013;-58
2023/10/09 03:43:41;;;;;;;6.72;2.47;;;11.30;99.90;;;;;;5040414;28;20572;-58
2023/10/09 03:46:20;;;;;;;3.67;1.98;;;11.40;99.90;;;;;;5047837;28;20332;-58
2023/10/09 03:48:49;;;;;;;4.22;2.33;;;11.40;99.90;;;;;;5040841;28;20021;-58
2023/10/09 03:51:21;;;;;;;5.78;2.28;;;11.40;99.90;;;;;;5046310;28;20025;-58
2023/10/09 03:53:47;;;;;;;4.72;2.17;;;11.40;99.90;;;;;;5042281;28;20160;-58
2023/10/09 03:56:13;;;;;;;3.50;2.10;;;11.40;99.90;;;;;;5047432;28;20039;-58
2023/10/09 03:58:49;;;;;;;7.07;2.08;;;11.50;99.90;;;;;;5041825;28;20021;-58
2023/10/09 04:01:29;;;;;;;3.47;2.00;;;11.50;99.90;;;;;;5042511;28;20009;-59
2023/10/09 04:03:59;;;;;;;5.13;2.20;;;11.50;99.90;;;;;;5042185;28;20525;-58
2023/10/09 04:06:28;;;;;;;5.35;2.30;;;11.60;99.90;;;;;;5043284;28;20100;-57
2023/10/09 04:08:54;;;;;;;3.03;2.03;;;11.60;99.90;;;;;;5045125;28;20406;-57
2023/10/09 04:11:23;;;;;;;5.68;2.28;;;11.60;99.90;;;;;;5047617;28;20040;-57
2023/10/09 04:14:00;;;;;;;6.38;2.67;;;11.60;99.90;;;;;;5044352;28;20033;-57
2023/10/09 04:18:57;;;;;;;5.22;2.28;;;11.60;99.90;;;;;;5043923;28;20025;-57
2023/10/09 04:21:36;;;;;;;7.80;2.40;;;11.60;99.90;;;;;;5045554;28;20021;-57
2023/10/09 04:26:45;;;;;;;3.35;2.00;;;11.70;99.90;;;;;;5046038;28;20107;-57
2023/10/09 04:29:23;;;;;;;7.72;2.72;;;11.70;99.90;;;;;;5040118;28;20021;-57
2023/10/09 04:31:51;;;;;;;5.70;2.35;;;11.60;99.90;;;;;;5047391;28;20504;-58
2023/10/09 04:34:28;;;;;;;4.07;2.30;;;11.60;99.90;;;;;;5046064;28;20497;-57
2023/10/09 04:39:35;;;;;;;4.72;2.13;;;11.60;99.90;;;;;;5041194;28;20034;-57
2023/10/09 04:42:26;;;;;;;3.90;2.35;;;11.50;99.90;;;;;;5043413;28;20013;-57
2023/10/09 04:47:38;;;;;;;6.40;2.40;;;11.50;99.90;;;;;;5046337;28;20053;-57
2023/10/09 04:50:36;;;;;;;5.47;2.50;;;11.60;99.90;;;;;;5045705;28;20032;-57
2023/10/09 04:53:22;;;;;;;6.40;2.63;;;11.60;99.90;;;;;;5046509;28;20449;-57
2023/10/09 04:55:54;;;;;;;7.03;3.22;;;11.60;99.90;;;;;;5038978;28;20450;-57
2023/10/09 04:58:32;;;;;;;10.13;4.25;;;11.60;99.90;;;;;;5046205;28;20391;-57
2023/10/09 05:03:42;;;;;;;5.22;2.67;;;11.60;99.90;;;;;;5045740;28;20041;-57
2023/10/09 05:06:21;;;;;;;4.60;2.45;;;11.50;99.90;;;;;;5047970;28;20100;-57
2023/10/09 05:08:48;;;;;;;3.97;2.17;;;11.50;99.90;;;;;;5045357;28;20033;-57
2023/10/09 05:14:11;;;;;;;5.82;2.58;;;11.60;99.90;;;;;;5051054;28;20039;-57
2023/10/09 05:16:37;;;;;;;4.78;2.97;;;11.60;99.90;;;;;;5048295;28;20017;-57
2023/10/09 05:19:06;;;;;;;5.15;2.70;;;11.60;99.90;;;;;;5044716;28;20035;-57
2023/10/09 05:21:44;;;;;;;4.60;2.58;;;11.60;99.90;;;;;;5051474;28;20040;-57
2023/10/09 05:38:15;;;;;;;6.60;2.90;;;11.70;99.90;;;;;;5044592;28;20055;-57
2023/10/09 05:50:34;;;;;;;6.13;3.08;;;11.80;99.90;;;;;;5050638;28;20033;-57
2023/10/09 06:04:11;;;;;;;7.55;3.17;;;11.80;99.90;;;;;;5048670;28;20122;-57
2023/10/09 06:06:44;;;;;;;7.18;4.32;;;11.80;99.90;;;;;;5047409;28;20035;-57
2023/10/09 06:19:31;;;;;;;9.60;4.22;;;11.70;99.90;;;;;;5049060;28;20029;-57
2023/10/09 06:24:42;;;;;;;6.70;4.00;;;11.70;99.90;;;;;;5042974;28;20039;-57
2023/10/09 06:27:13;;;;;;;6.43;3.92;;;11.70;99.90;;;;;;5045573;28;20012;-57
2023/10/09 06:35:53;;;;;;;7.10;3.83;;;11.70;99.90;;;;;;5049258;28;20124;-57
2023/10/09 06:45:54;;;;;;;8.80;4.55;;;11.60;99.90;;;;;;5049420;28;20052;-57
2023/10/09 06:59:24;;;;;;;7.25;4.00;;;11.60;99.90;;;;;;5032469;28;20037;-57
2023/10/09 07:07:20;;;;;;;8.52;5.47;;;11.60;99.90;;;;;;5038841;28;20108;-57
2023/10/09 07:12:33;;;;;;;9.48;5.45;;;11.60;99.90;;;;;;5038757;28;20064;-57
2023/10/09 07:20:09;;;;;;;10.52;5.63;;;11.70;99.90;;;;;;5036220;28;20040;-57
2023/10/09 07:22:39;;;;;;;10.93;5.35;;;11.70;99.90;;;;;;5030607;28;20067;-57
2023/10/09 07:25:17;;;;;;;11.43;5.97;;;11.70;99.90;;;;;;5045916;28;20391;-57
2023/10/09 07:27:48;;;;;;;12.70;6.40;;;11.70;99.90;;;;;;5030739;28;20263;-57
2023/10/09 07:38:19;;;;;;;10.43;5.78;;;11.70;99.90;;;;;;5030875;28;20017;-57
2023/10/09 07:41:33;;;;;;;10.23;5.43;;;11.70;99.90;;;;;;5029502;28;20029;-57
2023/10/09 07:43:45;;;;;;;10.88;5.97;;;11.70;99.90;;;;;;5033481;28;20031;-57
2023/10/09 07:46:32;;;;;;;12.85;6.82;;;11.70;99.90;;;;;;5046080;28;20506;-57
2023/10/09 07:49:08;;;;;;;7.30;5.20;;;11.70;99.90;;;;;;5037284;28;20036;-57
2023/10/09 07:51:35;;;;;;;10.20;6.55;;;11.80;99.90;;;;;;5032900;28;20029;-57
2023/10/09 07:54:14;;;;;;;10.88;6.82;;;11.80;99.90;;;;;;5032098;28;20021;-57
2023/10/09 07:56:41;;;;;;;8.75;6.25;;;11.90;99.90;;;;;;5037687;28;20029;-57
2023/10/09 07:59:14;;;;;;;11.10;7.18;;;11.80;99.90;;;;;;5032726;28;20100;-57
2023/10/09 08:01:54;;;;;;;9.80;6.55;;;11.90;99.90;;;;;;5038036;28;20033;-57
2023/10/09 08:07:09;;;;;;;9.30;6.22;;;11.90;99.90;;;;;;5039220;28;20077;-57
2023/10/09 08:09:48;;;;;;;8.68;5.63;;;11.90;99.90;;;;;;5038687;28;20483;-57
2023/10/09 08:12:38;;;;;;;17.23;6.82;;;11.90;99.90;;;;;;5035574;28;20040;-57
2023/10/09 08:17:53;;;;;;;10.63;6.07;;;11.90;99.90;;;;;;5034774;28;20459;-57
2023/10/09 08:20:25;;;;;;;11.65;6.85;;;11.90;99.90;;;;;;5043633;28;20030;-57
2023/10/09 08:22:58;;;;;;;8.50;5.85;;;11.90;99.90;;;;;;5030563;28;20037;-57
2023/10/09 08:25:35;;;;;;;9.32;6.60;;;11.90;99.90;;;;;;5029991;28;20057;-57
2023/10/09 08:30:50;;;;;;;6.93;5.20;;;11.90;99.90;;;;;;5036461;28;20479;-57
2023/10/09 08:36:01;;;;;;;10.25;6.30;;;12.00;99.90;;;;;;5036397;28;20021;-58
2023/10/09 08:38:33;;;;;;;12.27;7.80;;;12.00;99.90;;;;;;5038392;28;20025;-58
2023/10/09 08:41:17;;;;;;;10.27;7.47;;;12.00;99.90;;;;;;5036390;28;20390;-57
2023/10/09 08:43:53;;;;;;;10.68;7.13;;;12.00;99.90;;;;;;5055024;28;20056;-57
2023/10/09 08:46:22;;;;;;;11.63;7.85;;;12.00;99.90;;;;;;5048481;28;20475;-57
2023/10/09 08:48:48;;;;;;;9.25;6.13;;;12.00;99.90;;;;;;5035093;28;20060;-57
2023/10/09 08:51:14;;;;;;;10.93;7.18;;;12.10;99.90;;;;;;5042186;28;20028;-57
2023/10/09 08:53:45;;;;;;;12.82;7.28;;;12.10;99.90;;;;;;5041740;28;20021;-57
2023/10/09 08:56:14;;;;;;;10.50;7.32;;;12.20;99.90;;;;;;5035313;28;20021;-57
2023/10/09 08:58:41;;;;;;;10.07;6.82;;;12.20;99.90;;;;;;5035046;28;20032;-57
2023/10/09 09:01:06;;;;;;;11.82;7.60;;;12.20;99.90;;;;;;5045345;28;20100;-57
2023/10/09 09:03:40;;;;;;;8.95;6.93;;;12.30;99.90;;;;;;5046457;28;20108;-57
2023/10/09 09:06:06;;;;;;;11.13;7.45;;;12.30;99.90;;;;;;5035242;28;20382;-57
2023/10/09 09:08:36;;;;;;;9.95;6.60;;;12.30;99.90;;;;;;5035196;28;20044;-57
2023/10/09 09:11:11;;;;;;;11.40;7.97;;;12.30;99.90;;;;;;5036365;28;20749;-58
2023/10/09 09:13:50;;;;;;;10.90;7.82;;;12.30;99.90;;;;;;5040464;28;20056;-57
2023/10/09 09:16:29;;;;;;;11.57;7.88;;;12.30;99.90;;;;;;5035420;28;20483;-57
2023/10/09 09:21:40;;;;;;;11.48;7.85;;;12.40;99.90;;;;;;5034789;28;20017;-57
2023/10/09 09:27:18;;;;;;;9.32;6.25;;;12.40;99.90;;;;;;5042714;28;20107;-57
2023/10/09 09:29:52;;;;;;;8.70;6.45;;;12.50;99.90;;;;;;5035445;28;20483;-56
2023/10/09 09:32:35;;;;;;;10.57;5.90;;;12.50;99.90;;;;;;5038351;28;20040;-56
2023/10/09 09:35:04;;;;;;;8.02;5.53;;;12.50;99.90;;;;;;5038153;28;20124;-57
2023/10/09 09:37:38;;;;;;;9.70;6.82;;;12.50;99.90;;;;;;5040953;28;20045;-56
2023/10/09 09:40:14;;;;;;;8.00;5.97;;;12.50;99.90;;;;;;5042988;28;20051;-57
2023/10/09 09:42:44;;;;;;;9.20;6.35;;;12.60;99.90;;;;;;5038620;28;20449;-57
2023/10/09 09:45:11;;;;;;;9.88;6.80;;;12.50;99.90;;;;;;5042967;28;20017;-57
2023/10/09 09:47:37;;;;;;;12.48;7.57;;;12.60;99.90;;;;;;5042276;28;20087;-56
2023/10/09 09:50:13;;;;;;;9.52;7.50;;;12.60;99.90;;;;;;5038696;28;20017;-57
2023/10/09 09:52:39;;;;;;;10.38;7.90;;;12.60;99.90;;;;;;5044961;28;20553;-56
2023/10/09 09:55:14;;;;;;;11.05;7.68;;;12.60;99.90;;;;;;5044587;28;20267;-56
2023/10/09 09:57:41;;;;;;;10.40;7.28;;;12.60;99.90;;;;;;5045570;28;20029;-57
2023/10/09 10:00:26;;;;;;;13.13;7.57;;;12.60;99.90;;;;;;5049630;28;20029;-57
2023/10/09 10:02:57;;;;;;;7.80;6.28;;;12.60;99.90;;;;;;5035601;28;20451;-56
2023/10/09 10:05:29;;;;;;;9.35;7.10;;;12.70;99.90;;;;;;5047021;28;20402;-57
2023/10/09 10:07:59;;;;;;;10.80;7.55;;;12.70;99.90;;;;;;5043820;28;20026;-56
2023/10/09 10:10:38;;;;;;;12.10;7.82;;;12.70;99.90;;;;;;5035182;28;20071;-56
2023/10/09 10:13:05;;;;;;;10.40;6.47;;;12.80;99.90;;;;;;5043405;28;20098;-57
2023/10/09 10:15:58;;;;;;;10.23;7.35;;;12.80;99.90;;;;;;5040189;28;20483;-56
2023/10/09 10:18:24;;;;;;;9.15;6.38;;;12.80;99.90;;;;;;5045531;28;20070;-56
2023/10/09 10:21:15;;;;;;;10.18;7.97;;;12.90;99.90;;;;;;5039003;28;20562;-56
2023/10/09 10:23:46;;;;;;;9.18;6.75;;;12.90;99.90;;;;;;5034637;28;20112;-56
2023/10/09 10:26:26;;;;;;;9.45;6.68;;;12.90;99.90;;;;;;5042467;28;20031;-56
2023/10/09 10:29:23;;;;;;;8.35;5.70;;;12.90;99.90;;;;;;5037105;28;20426;-56
2023/10/09 10:31:54;;;;;;;7.47;6.22;;;13.00;99.90;;;;;;5038650;28;20029;-57
2023/10/09 10:34:23;;;;;;;7.82;5.65;;;13.00;99.90;;;;;;5041184;28;20025;-57
2023/10/09 10:36:52;;;;;;;9.82;6.82;;;13.00;99.90;;;;;;5036395;28;20026;-57
2023/10/09 10:41:54;;;;;;;9.73;6.60;;;13.00;99.90;;;;;;5042071;28;20585;-57
2023/10/09 10:44:37;;;;;;;10.65;7.82;;;13.10;99.90;;;;;;5043832;28;20037;-56
2023/10/09 10:47:32;;;;;;;16.05;8.82;;;13.10;99.90;;;;;;5042662;28;20455;-56
2023/10/09 10:49:58;;;;;;;12.07;7.00;;;13.10;99.90;;;;;;5037335;28;20064;-56
2023/10/09 10:52:44;;;;;;;11.23;7.85;;;13.10;99.90;;;;;;5039706;28;20025;-56
2023/10/09 10:55:18;;;;;;;10.65;7.32;;;13.10;99.90;;;;;;5038913;28;20013;-56
2023/10/09 10:57:53;;;;;;;12.98;7.90;;;13.20;99.90;;;;;;5041200;28;20551;-57
2023/10/09 11:03:19;;;;;;;15.98;9.65;;;13.20;99.90;;;;;;5037776;28;20086;-56
2023/10/09 11:05:50;;;;;;;12.60;8.85;;;13.20;99.90;;;;;;5035219;28;20093;-56
2023/10/09 11:08:22;;;;;;;22.48;12.30;;;13.30;99.90;;;;;;5042254;28;20029;-56
2023/10/09 11:10:53;;;;;;;18.02;10.98;;;13.20;99.90;;;;;;5045787;28;20021;-57
2023/10/09 11:13:52;;;;;;;16.77;10.82;;;13.30;99.90;;;;;;5035444;28;20026;-56
2023/10/09 11:19:32;;;;;;;17.15;9.50;;;13.30;99.90;;;;;;5036378;28;20079;-56
2023/10/09 11:24:33;;;;;;;12.50;8.43;;;13.30;99.90;;;;;;5037787;28;20025;-56
2023/10/09 11:27:05;;;;;;;17.48;10.63;;;13.40;99.90;;;;;;5037423;28;20030;-56
2023/10/09 11:32:22;;;;;;;16.45;11.35;;;13.50;99.90;;;;;;5037384;28;20106;-56
2023/10/09 11:34:54;;;;;;;23.45;13.35;;;13.50;99.90;;;;;;5036936;28;20014;-56
2023/10/09 11:40:00;;;;;;;23.48;14.52;;;13.60;99.90;;;;;;5048405;28;20025;-56
2023/10/09 11:42:37;;;;;;;21.80;12.57;;;13.70;99.90;;;;;;5038461;28;20044;-56
2023/10/09 11:45:24;;;;;;;17.88;11.30;;;13.70;99.90;;;;;;5043081;28;20052;-56
2023/10/09 11:48:00;;;;;;;19.50;13.32;;;13.80;99.90;;;;;;5036625;28;20033;-56
2023/10/09 11:51:28;;;;;;;28.90;16.63;;;13.80;99.90;;;;;;5035284;28;20021;-56
2023/10/09 11:53:54;;;;;;;29.15;16.48;;;13.90;99.90;;;;;;5036035;28;20060;-56
2023/10/09 11:56:22;;;;;;;23.90;14.30;;;13.90;99.90;;;;;;5035691;28;20104;-56
2023/10/09 11:58:51;;;;;;;37.08;21.42;;;14.00;99.90;;;;;;5044237;28;20498;-56
2023/10/09 12:01:20;;;;;;;32.97;18.85;;;14.10;99.90;;;;;;5036433;28;20514;-56
2023/10/09 12:03:53;;;;;;;35.03;20.38;;;14.10;99.90;;;;;;5034415;28;20396;-56
2023/10/09 12:06:23;;;;;;;52.10;26.25;;;14.20;99.90;;;;;;5041294;28;20107;-56
2023/10/09 12:08:49;;;;;;;46.30;25.90;;;14.30;99.90;;;;;;5036532;28;20021;-56
2023/10/09 12:11:22;;;;;;;54.15;28.67;;;14.30;99.90;;;;;;5043842;28;20100;-56
2023/10/09 12:13:48;;;;;;;53.05;28.33;;;14.40;99.90;;;;;;5038347;28;20105;-56
2023/10/09 12:16:15;;;;;;;57.45;29.45;;;14.50;99.90;;;;;;5036123;28;20422;-56
2023/10/09 12:18:42;;;;;;;69.22;34.75;;;14.50;99.90;;;;;;5032513;28;20125;-56
2023/10/09 12:21:15;;;;;;;54.53;29.88;;;14.60;99.90;;;;;;5043354;28;20036;-56
2023/10/09 12:23:43;;;;;;;61.80;33.30;;;14.60;99.90;;;;;;5035278;28;20072;-56
2023/10/09 12:26:14;;;;;;;48.97;27.60;;;14.70;99.90;;;;;;5048181;28;20239;-56
2023/10/09 12:28:46;;;;;;;51.72;27.73;;;14.80;99.90;;;;;;5040777;28;20161;-56
2023/10/09 12:31:15;;;;;;;63.78;32.03;;;14.80;99.90;;;;;;5035254;28;20108;-57
2023/10/09 12:33:41;;;;;;;58.45;31.95;;;14.90;99.90;;;;;;5035091;28;20026;-56
2023/10/09 12:36:17;;;;;;;56.75;31.17;;;14.90;99.90;;;;;;5038539;28;20360;-56
2023/10/09 12:38:46;;;;;;;59.80;33.03;;;15.00;99.90;;;;;;5035724;28;20549;-56
2023/10/09 12:41:26;;;;;;;56.33;30.83;;;15.00;99.90;;;;;;5037737;28;20467;-56
2023/10/09 12:43:52;;;;;;;53.65;30.27;;;15.10;99.90;;;;;;5040475;28;20075;-57
2023/10/09 12:46:22;;;;;;;40.10;25.38;;;15.10;99.90;;;;;;5037147;28;20448;-57
2023/10/09 12:48:57;;;;;;;;;;;15.00;99.90;;;;;;5037324;28;20021;-57
2023/10/09 12:51:29;;;;;;;48.28;28.35;;;15.10;99.90;;;;;;5036612;28;20390;-57
2023/10/09 12:53:58;;;;;;;55.67;31.52;;;15.10;99.90;;;;;;5034211;28;20476;-57
2023/10/09 12:56:32;;;;;;;48.97;30.77;;;15.10;99.90;;;;;;5039249;28;20017;-57
2023/10/09 12:59:01;;;;;;;50.72;29.90;;;15.10;99.90;;;;;;5037951;28;20022;-57
2023/10/09 13:01:42;;;;;;;48.63;27.92;;;15.10;99.90;;;;;;5036188;28;20044;-57
2023/10/09 13:04:15;;;;;;;47.33;28.50;;;15.10;99.90;;;;;;5035254;28;20024;-57
2023/10/09 13:06:43;;;;;;;49.63;27.90;;;15.20;99.90;;;;;;5045137;28;20108;-56
2023/10/09 13:09:13;;;;;;;43.65;25.08;;;15.20;99.90;;;;;;5040309;28;20028;-57
2023/10/09 13:11:43;;;;;;;53.30;26.02;;;15.20;99.90;;;;;;5038847;28;20087;-57
2023/10/09 13:14:27;;;;;;;43.25;25.10;;;15.20;99.90;;;;;;5035930;28;20053;-57
2023/10/09 13:16:53;;;;;;;45.28;25.42;;;15.20;99.90;;;;;;5047096;28;20021;-56
2023/10/09 13:19:19;;;;;;;45.60;27.08;;;15.30;99.90;;;;;;5037325;28;20091;-56
2023/10/09 13:21:46;;;;;;;43.60;24.73;;;15.30;99.90;;;;;;5036619;28;20117;-56
2023/10/09 13:24:15;;;;;;;41.08;25.58;;;15.30;99.90;;;;;;5043161;28;20044;-56
2023/10/09 13:26:46;;;;;;;38.97;23.02;;;15.30;99.90;;;;;;5023461;28;20021;-56
2023/10/09 13:29:12;;;;;;;39.30;23.33;;;15.30;99.90;;;;;;5042205;28;20016;-56
2023/10/09 13:31:46;;;;;;;43.20;26.10;;;15.30;99.90;;;;;;5039573;28;20022;-56
2023/10/09 13:34:14;;;;;;;32.50;21.88;;;15.30;99.90;;;;;;5043751;28;20017;-56
2023/10/09 13:36:49;;;;;;;39.35;25.35;;;15.30;99.90;;;;;;5039673;28;20014;-56
2023/10/09 13:39:23;;;;;;;36.80;22.70;;;15.30;99.90;;;;;;5045906;28;20116;-56
2023/10/09 13:42:07;;;;;;;40.08;24.80;;;15.30;99.90;;;;;;5047211;28;20494;-57
2023/10/09 13:44:34;;;;;;;40.17;24.25;;;15.30;99.90;;;;;;5039421;28;20071;-57
2023/10/09 13:47:05;;;;;;;50.75;29.60;;;15.30;99.90;;;;;;5046775;28;20064;-57
2023/10/09 13:49:31;;;;;;;50.43;29.70;;;15.20;99.90;;;;;;5040279;28;20465;-56
2023/10/09 13:51:58;;;;;;;41.65;27.25;;;15.30;99.90;;;;;;5046329;28;20119;-56
2023/10/09 13:56:58;;;;;;;49.42;27.98;;;15.30;99.90;;;;;;5042600;28;20021;-57
2023/10/09 13:59:27;;;;;;;46.97;28.98;;;15.20;99.90;;;;;;5039307;28;20033;-57
2023/10/09 14:01:56;;;;;;;47.75;30.15;;;15.30;99.90;;;;;;5040455;28;20055;-57
2023/10/09 14:04:26;;;;;;;51.40;32.28;;;15.30;99.90;;;;;;5038308;28;20028;-56
2023/10/09 14:06:56;;;;;;;46.35;28.45;;;15.30;99.90;;;;;;5045577;28;20515;-57
2023/10/09 14:09:31;;;;;;;;;;;15.30;99.90;;;;;;5040326;28;20040;-57
2023/10/09 14:12:11;;;;;;;43.10;29.85;;;15.40;99.90;;;;;;5040807;28;19909;-57
2023/10/09 14:14:40;;;;;;;41.30;25.83;;;15.40;99.90;;;;;;5041368;28;20104;-56
2023/10/09 14:17:12;;;;;;;38.83;25.48;;;15.40;99.90;;;;;;5042314;28;20471;-56
2023/10/09 14:19:46;;;;;;;34.03;24.05;;;15.40;99.90;;;;;;5038099;28;20026;-57
2023/10/09 14:22:15;;;;;;;36.22;23.60;;;15.50;99.90;;;;;;5040056;28;20063;-57
2023/10/09 14:24:44;;;;;;;42.72;26.10;;;15.50;99.90;;;;;;5045899;28;20021;-57
2023/10/09 14:27:19;;;;;;;38.13;24.42;;;15.50;99.90;;;;;;5043305;28;20028;-56
2023/10/09 14:29:48;;;;;;;33.35;21.98;;;15.50;99.90;;;;;;5023217;28;20503;-57
2023/10/09 14:32:14;;;;;;;36.50;22.70;;;15.50;99.90;;;;;;5042397;28;20037;-56
2023/10/09 14:34:50;;;;;;;41.63;23.63;;;15.50;99.90;;;;;;5042586;28;20017;-57
2023/10/09 14:37:16;;;;;;;37.30;23.27;;;15.50;99.90;;;;;;5036388;28;20022;-57
2023/10/09 14:39:42;;;;;;;33.00;21.25;;;15.50;99.90;;;;;;5040036;28;20040;-57
2023/10/09 14:42:10;;;;;;;32.72;19.85;;;15.50;99.90;;;;;;5046350;28;20039;-57
2023/10/09 14:44:40;;;;;;;36.58;21.10;;;15.60;99.90;;;;;;5039155;28;20033;-57
2023/10/09 14:47:06;;;;;;;31.30;20.17;;;15.60;99.90;;;;;;5035815;28;20029;-57
2023/10/09 14:49:37;;;;;;;29.83;19.20;;;15.60;99.90;;;;;;5039430;28;20043;-57
2023/10/09 14:52:08;;;;;;;;;;;15.60;99.90;;;;;;5043187;28;20035;-57
2023/10/09 14:54:38;;;;;;;27.23;17.83;;;15.60;99.90;;;;;;5039813;28;19923;-57
2023/10/09 14:57:05;;;;;;;26.95;16.00;;;15.60;99.90;;;;;;5046391;28;20020;-57
2023/10/09 14:59:32;;;;;;;24.52;17.95;;;15.60;99.90;;;;;;5045392;28;20025;-57
2023/10/09 15:01:59;;;;;;;25.83;17.80;;;15.60;99.90;;;;;;5042943;28;20379;-57
2023/10/09 15:04:25;;;;;;;29.38;19.13;;;15.60;99.90;;;;;;5041325;28;20029;-57
2023/10/09 15:06:51;;;;;;;28.58;19.50;;;15.60;99.90;;;;;;5044992;28;20079;-57
2023/10/09 15:09:28;;;;;;;22.02;16.15;;;15.60;99.90;;;;;;5041477;28;20017;-57
2023/10/09 15:11:54;;;;;;;25.65;17.33;;;15.60;99.90;;;;;;5041731;28;20026;-57
2023/10/09 15:14:19;;;;;;;28.38;18.40;;;15.60;99.90;;;;;;5042284;28;20078;-57
2023/10/09 15:16:46;;;;;;;25.70;18.83;;;15.60;99.90;;;;;;5039236;28;20082;-57
2023/10/09 15:19:11;;;;;;;23.13;17.55;;;15.70;99.90;;;;;;5046645;28;20017;-57
2023/10/09 15:21:43;;;;;;;25.30;16.35;;;15.60;99.90;;;;;;5040027;28;20438;-57
2023/10/09 15:24:16;;;;;;;27.83;18.48;;;15.70;99.90;;;;;;5037195;28;20386;-57
2023/10/09 15:26:42;;;;;;;23.08;17.30;;;15.70;99.90;;;;;;5043530;28;20390;-57
2023/10/09 15:29:09;;;;;;;21.58;17.25;;;15.70;99.90;;;;;;5043303;28;20024;-57
2023/10/09 15:31:35;;;;;;;25.08;17.02;;;15.70;99.90;;;;;;5042952;28;20060;-57
2023/10/09 15:34:02;;;;;;;22.33;15.30;;;15.70;99.90;;;;;;5042886;28;20104;-57
2023/10/09 15:36:31;;;;;;;22.40;15.10;;;15.70;99.90;;;;;;5044882;28;20543;-57
2023/10/09 15:38:59;;;;;;;24.03;16.77;;;15.80;99.90;;;;;;5041878;28;20028;-57
2023/10/09 15:41:31;;;;;;;19.10;13.38;;;15.80;99.90;;;;;;5043072;28;20514;-57
2023/10/09 15:43:57;;;;;;;22.38;15.18;;;15.80;99.90;;;;;;5045894;28;20028;-57